Time;durP1;ratioP1;P1;durP2;ratioP2;P2;SDS_P1;SDS_P2;PMS_P1;PMS_P2;Temp;Humidity;BMP_temperature;BMP_pressure;BME280_temperature;BME280_humidity;BME280_pressure;Samples;Min_cycle;Max_cycle;Signal;HPM_P1;HPM_P2
2023/05/30 00:04:24;;;;;;;;;;;;;;;;;;5174062;27;20006;-68
2023/05/30 00:06:51;;;;;;;;;;;;;;;;;;5173819;27;19957;-68
2023/05/30 00:10:02;;;;;;;;;;;;;;;;;;5091357;28;19916;-68
2023/05/30 00:13:50;;;;;;;;;;;;;;;;;;5091807;27;19919;-67
2023/05/30 00:17:25;;;;;;;;;;;;;;;;;;5091218;27;19917;-68
2023/05/30 00:19:54;;;;;;;;;;;;;;;;;;5091395;28;20007;-68
2023/05/30 00:22:20;;;;;;;;;;;;;;;;;;5090138;28;19908;-68
2023/05/30 00:24:49;;;;;;;;;;;;;;;;;;5090925;28;19908;-68
2023/05/30 00:27:15;;;;;;;;;;;;;;;;;;5091902;28;19912;-68
2023/05/30 00:31:09;;;;;;;;;;;;;;;;;;5091459;28;19916;-68
2023/05/30 00:36:55;;;;;;;;;;;;;;;;;;5091781;27;19938;-67
2023/05/30 00:41:18;;;;;;;;;;;;;;;;;;5091637;27;19923;-68
2023/05/30 00:43:44;;;;;;;;;;;;;;;;;;5091153;28;20003;-68
2023/05/30 00:46:13;;;;;;;;;;;;;;;;;;5091313;28;19909;-68
2023/05/30 00:48:39;;;;;;;;;;;;;;;;;;5091628;28;19908;-68
2023/05/30 00:51:05;;;;;;;;;;;;;;;;;;5090785;28;19912;-69
2023/05/30 00:53:31;;;;;;;;;;;;;;;;;;5091245;28;19908;-68
2023/05/30 00:58:18;;;;;;;;;;;;;;;;;;5091627;27;19923;-67
2023/05/30 01:00:45;;;;;;;;;;;;;;;;;;5091694;28;20002;-67
2023/05/30 01:05:31;;;;;;;;;;;;;;;;;;5091181;27;19912;-67
2023/05/30 01:08:40;;;;;;;;;;;;;;;;;;5091438;27;20295;-67
2023/05/30 01:11:07;;;;;;;;;;;;;;;;;;5091603;28;20003;-67
2023/05/30 01:13:33;;;;;;;;;;;;;;;;;;5089681;28;19931;-67
2023/05/30 01:15:59;;;;;;;;;;;;;;;;;;5091786;28;19919;-67
2023/05/30 01:18:25;;;;;;;;;;;;;;;;;;5090315;28;19908;-68
2023/05/30 01:20:51;;;;;;;;;;;;;;;;;;5090936;28;19915;-67
2023/05/30 01:24:05;;;;;;;;;;;;;;;;;;5091992;27;19916;-67
2023/05/30 01:29:45;;;;;;;;;;;;;;;;;;5091447;27;19916;-67
2023/05/30 01:33:03;;;;;;;;;;;;;;;;;;5091437;28;19919;-67
2023/05/30 01:37:48;;;;;;;;;;;;;;;;;;5091858;27;19916;-66
2023/05/30 01:40:14;;;;;;;;;;;;;;;;;;5090960;28;19995;-67
2023/05/30 01:42:40;;;;;;;;;;;;;;;;;;5090059;28;19931;-67
2023/05/30 01:45:06;;;;;;;;;;;;;;;;;;5091297;28;19951;-67
2023/05/30 01:47:44;;;;;;;;;;;;;;;;;;5091113;27;19916;-67
2023/05/30 01:50:10;;;;;;;;;;;;;;;;;;5091430;28;19920;-68
2023/05/30 01:52:36;;;;;;;;;;;;;;;;;;5090112;28;19909;-67
2023/05/30 01:55:03;;;;;;;;;;;;;;;;;;5090929;28;19915;-67
2023/05/30 01:59:30;;;;;;;;;;;;;;;;;;5091635;27;19923;-67
2023/05/30 02:01:56;;;;;;;;;;;;;;;;;;5090968;28;20351;-67
2023/05/30 02:04:21;;;;;;;;;;;;;;;;;;5091298;28;20046;-67
2023/05/30 02:06:47;;;;;;;;;;;;;;;;;;5091332;28;19909;-67
2023/05/30 02:09:27;;;;;;;;;;;;;;;;;;5091143;28;19912;-66
2023/05/30 02:13:58;;;;;;;;;;;;;;;;;;5091839;27;19917;-67
2023/05/30 02:16:24;;;;;;;;;;;;;;;;;;5090977;28;19919;-67
2023/05/30 02:20:15;;;;;;;;;;;;;;;;;;5091755;27;19916;-67
2023/05/30 02:22:41;;;;;;;;;;;;;;;;;;5091235;28;19913;-67
2023/05/30 02:25:09;;;;;;;;;;;;;;;;;;5091259;28;19909;-67
2023/05/30 02:28:07;;;;;;;;;;;;;;;;;;5092191;27;20263;-67
2023/05/30 02:30:33;;;;;;;;;;;;;;;;;;5091241;28;20007;-67
2023/05/30 02:32:59;;;;;;;;;;;;;;;;;;5091315;28;20327;-67
2023/05/30 02:35:25;;;;;;;;;;;;;;;;;;5091289;28;19908;-67
2023/05/30 02:37:51;;;;;;;;;;;;;;;;;;5090825;28;19931;-67
2023/05/30 02:40:17;;;;;;;;;;;;;;;;;;5091246;28;19912;-67
2023/05/30 02:43:27;;;;;;;;;;;;;;;;;;5091672;28;20737;-67
2023/05/30 02:45:53;;;;;;;;;;;;;;;;;;5091417;28;19999;-67
2023/05/30 02:48:20;;;;;;;;;;;;;;;;;;5091349;28;19909;-67
2023/05/30 02:50:46;;;;;;;;;;;;;;;;;;5090972;28;19915;-67
2023/05/30 02:53:12;;;;;;;;;;;;;;;;;;5091261;28;20003;-67
2023/05/30 02:55:42;;;;;;;;;;;;;;;;;;5091298;28;19916;-67
2023/05/30 02:59:37;;;;;;;;;;;;;;;;;;5091508;27;19923;-66
2023/05/30 03:02:03;;;;;;;;;;;;;;;;;;5091496;28;20003;-66
2023/05/30 03:04:29;;;;;;;;;;;;;;;;;;5091114;28;19912;-67
2023/05/30 03:06:55;;;;;;;;;;;;;;;;;;5091382;28;19938;-67
2023/05/30 03:09:21;;;;;;;;;;;;;;;;;;5091288;28;19931;-67
2023/05/30 03:11:47;;;;;;;;;;;;;;;;;;5090879;28;19919;-67
2023/05/30 03:14:13;;;;;;;;;;;;;;;;;;5091306;28;19909;-67
2023/05/30 03:19:12;;;;;;;;;;;;;;;;;;5091029;27;19916;-67
2023/05/30 03:21:38;;;;;;;;;;;;;;;;;;5090124;28;19936;-67
2023/05/30 03:24:05;;;;;;;;;;;;;;;;;;5091362;28;20360;-67
2023/05/30 03:26:59;;;;;;;;;;;;;;;;;;5091174;27;20295;-67
2023/05/30 03:29:26;;;;;;;;;;;;;;;;;;5091652;28;20266;-67
2023/05/30 03:31:51;;;;;;;;;;;;;;;;;;5091305;28;19930;-67
2023/05/30 03:34:17;;;;;;;;;;;;;;;;;;5089633;28;20360;-67
2023/05/30 03:36:43;;;;;;;;;;;;;;;;;;5091521;28;20282;-67
2023/05/30 03:39:09;;;;;;;;;;;;;;;;;;5091087;28;20315;-67
2023/05/30 03:41:35;;;;;;;;;;;;;;;;;;5090764;28;20012;-66
2023/05/30 03:44:01;;;;;;;;;;;;;;;;;;5091016;28;19915;-67
2023/05/30 03:46:27;;;;;;;;;;;;;;;;;;5090654;28;19921;-68
2023/05/30 03:48:53;;;;;;;;;;;;;;;;;;5091090;28;19915;-67
2023/05/30 03:51:19;;;;;;;;;;;;;;;;;;5090956;28;19908;-67
2023/05/30 03:53:45;;;;;;;;;;;;;;;;;;5089243;28;19997;-67
2023/05/30 03:56:11;;;;;;;;;;;;;;;;;;5090912;28;19908;-68
2023/05/30 03:58:37;;;;;;;;;;;;;;;;;;5090843;28;19966;-68
2023/05/30 04:01:03;;;;;;;;;;;;;;;;;;5090443;28;19915;-69
2023/05/30 04:03:29;;;;;;;;;;;;;;;;;;5090718;28;19909;-68
2023/05/30 04:05:58;;;;;;;;;;;;;;;;;;5090716;28;19960;-68
2023/05/30 04:08:24;;;;;;;;;;;;;;;;;;5090319;28;19908;-68
2023/05/30 04:11:28;;;;;;;;;;;;;;;;;;5071353;28;19939;-67
2023/05/30 04:13:54;;;;;;;;;;;;;;;;;;5071177;28;20262;-67
2023/05/30 04:16:20;;;;;;;;;;;;;;;;;;5070695;28;19915;-67
2023/05/30 04:19:50;;;;;;;;;;;;;;;;;;5091997;27;19922;-67
2023/05/30 04:22:16;;;;;;;;;;;;;;;;;;5090956;28;19913;-67
2023/05/30 04:24:42;;;;;;;;;;;;;;;;;;5091660;28;19916;-67
2023/05/30 04:28:36;;;;;;;;;;;;;;;;;;5092006;27;20382;-67
2023/05/30 04:35:35;;;;;;;;;;;;;;;;;;5091493;27;19923;-67
2023/05/30 04:41:00;;;;;;;;;;;;;;;;;;5091965;27;19917;-68
2023/05/30 04:43:27;;;;;;;;;;;;;;;;;;5091132;28;19999;-68
2023/05/30 04:45:53;;;;;;;;;;;;;;;;;;5091319;28;19954;-69
2023/05/30 04:48:19;;;;;;;;;;;;;;;;;;5091308;28;19908;-69
2023/05/30 04:51:01;;;;;;;;;;;;;;;;;;5091282;27;19923;-68
2023/05/30 04:53:27;;;;;;;;;;;;;;;;;;5091408;28;20003;-69
2023/05/30 04:55:53;;;;;;;;;;;;;;;;;;5091560;28;19909;-69
2023/05/30 04:58:19;;;;;;;;;;;;;;;;;;5090937;28;19909;-68
2023/05/30 05:00:59;;;;;;;;;;;;;;;;;;5092240;27;19923;-70
2023/05/30 05:03:25;;;;;;;;;;;;;;;;;;5090162;28;19966;-69
2023/05/30 05:05:51;;;;;;;;;;;;;;;;;;5090954;28;20376;-69
2023/05/30 05:08:17;;;;;;;;;;;;;;;;;;5091264;28;20323;-68
2023/05/30 05:12:36;;;;;;;;;;;;;;;;;;5091020;28;19917;-68
2023/05/30 05:17:05;;;;;;;;;;;;;;;;;;5085916;27;20406;-68
2023/05/30 05:19:31;;;;;;;;;;;;;;;;;;5075654;28;20011;-68
2023/05/30 05:22:08;;;;;;;;;;;;;;;;;;5089733;27;19916;-67
2023/05/30 05:24:34;;;;;;;;;;;;;;;;;;5086889;28;19955;-65
2023/05/30 05:28:45;;;;;;;;;;;;;;;;;;5109999;27;19920;-63
2023/05/30 05:31:12;;;;;;;;;;;;;;;;;;5109421;28;20398;-63
2023/05/30 05:34:52;;;;;;;;;;;;;;;;;;5129207;27;19937;-63
2023/05/30 05:37:18;;;;;;;;;;;;;;;;;;5123757;27;20332;-64
2023/05/30 05:41:14;;;;;;;;;;;;;;;;;;5087989;27;19925;-63
2023/05/30 05:45:05;;;;;;;;;;;;;;;;;;5088491;27;19920;-63
2023/05/30 05:47:31;;;;;;;;;;;;;;;;;;5088645;28;19913;-64
2023/05/30 05:49:57;;;;;;;;;;;;;;;;;;5088519;28;19966;-64
2023/05/30 05:52:58;;;;;;;;;;;;;;;;;;5090624;27;19916;-64
2023/05/30 05:59:00;;;;;;;;;;;;;;;;;;5090402;27;19927;-64
2023/05/30 06:01:26;;;;;;;;;;;;;;;;;;5089142;28;19912;-63
2023/05/30 06:03:51;;;;;;;;;;;;;;;;;;5087826;28;19913;-63
2023/05/30 06:06:18;;;;;;;;;;;;;;;;;;5089620;28;19921;-64
2023/05/30 06:09:44;;;;;;;;;;;;;;;;;;5089104;27;19931;-63
2023/05/30 06:12:10;;;;;;;;;;;;;;;;;;5081723;28;20257;-64
2023/05/30 06:14:36;;;;;;;;;;;;;;;;;;5070063;28;19919;-63
2023/05/30 06:17:02;;;;;;;;;;;;;;;;;;5081640;28;19913;-65
2023/05/30 06:21:40;;;;;;;;;;;;;;;;;;5089599;27;19923;-65
2023/05/30 06:26:30;;;;;;;;;;;;;;;;;;5080858;27;20015;-64
2023/05/30 06:28:56;;;;;;;;;;;;;;;;;;5085141;28;19912;-65
2023/05/30 06:31:23;;;;;;;;;;;;;;;;;;5088358;28;19948;-65
2023/05/30 06:33:49;;;;;;;;;;;;;;;;;;5089248;28;19971;-65
2023/05/30 06:36:15;;;;;;;;;;;;;;;;;;5089006;28;19908;-64
2023/05/30 06:40:52;;;;;;;;;;;;;;;;;;5088915;28;19927;-65
2023/05/30 06:47:05;;;;;;;;;;;;;;;;;;5084941;27;2138558;-64
2023/05/30 06:49:31;;;;;;;;;;;;;;;;;;5151026;27;19994;-65
2023/05/30 06:51:57;;;;;;;;;;;;;;;;;;5151025;27;20010;-65
2023/05/30 06:55:45;;;;;;;;;;;;;;;;;;5089609;27;19916;-65
2023/05/30 07:03:25;;;;;;;;;;;;;;;;;;5141661;27;19922;-64
2023/05/30 07:08:17;;;;;;;;;;;;;;;;;;5088087;27;19916;-65
2023/05/30 07:10:43;;;;;;;;;;;;;;;;;;5085440;28;20368;-65
2023/05/30 07:13:28;;;;;;;;;;;;;;;;;;5059199;28;20399;-66
2023/05/30 07:16:57;;;;;;;;;;;;;;;;;;5146929;27;19918;-65
2023/05/30 07:21:51;;;;;;;;;;;;;;;;;;5086288;28;19922;-64
2023/05/30 07:24:17;;;;;;;;;;;;;;;;;;5076233;28;20007;-64
2023/05/30 07:27:31;;;;;;;;;;;;;;;;;;5140185;27;19924;-63
2023/05/30 07:29:57;;;;;;;;;;;;;;;;;;5127720;28;19918;-63
2023/05/30 07:34:45;;;;;;;;;;;;;;;;;;5086512;27;19942;-64
2023/05/30 07:39:36;;;;;;;;;;;;;;;;;;5109552;27;19927;-63
2023/05/30 07:42:02;;;;;;;;;;;;;;;;;;5108367;28;19958;-64
2023/05/30 07:44:28;;;;;;;;;;;;;;;;;;5106982;28;19912;-63
2023/05/30 07:46:55;;;;;;;;;;;;;;;;;;5115999;28;20391;-63
2023/05/30 07:52:13;;;;;;;;;;;;;;;;;;5089302;27;19912;-63
2023/05/30 07:54:39;;;;;;;;;;;;;;;;;;5088381;28;19913;-63
2023/05/30 07:58:46;;;;;;;;;;;;;;;;;;5147763;27;19922;-63
2023/05/30 08:01:12;;;;;;;;;;;;;;;;;;5134085;27;20006;-63
2023/05/30 08:03:38;;;;;;;;;;;;;;;;;;5127835;27;19911;-64
2023/05/30 08:09:18;;;;;;;;;;;;;;;;;;5089253;28;20265;-63
2023/05/30 08:12:28;;;;;;;;;;;;;;;;;;5149333;27;19934;-63
2023/05/30 08:14:55;;;;;;;;;;;;;;;;;;5149497;27;19911;-64
2023/05/30 08:19:08;;;;;;;;;;;;;;;;;;5080985;27;19920;-63
2023/05/30 08:21:36;;;;;;;;;;;;;;;;;;5086427;28;19912;-63
2023/05/30 08:28:46;;;;;;;;;;;;;;;;;;5148639;27;20293;-63
2023/05/30 08:31:12;;;;;;;;;;;;;;;;;;5147720;27;20002;-64
2023/05/30 08:33:38;;;;;;;;;;;;;;;;;;5148297;27;20009;-63
2023/05/30 08:37:21;;;;;;;;;;;;;;;;;;5089752;28;19925;-65
2023/05/30 08:40:57;;;;;;;;;;;;;;;;;;5086901;27;19923;-65
2023/05/30 08:43:23;;;;;;;;;;;;;;;;;;5087015;28;19912;-65
2023/05/30 08:45:49;;;;;;;;;;;;;;;;;;5087366;28;20535;-65
2023/05/30 08:48:15;;;;;;;;;;;;;;;;;;5087878;28;19912;-65
2023/05/30 08:50:41;;;;;;;;;;;;;;;;;;5087301;28;20577;-65
2023/05/30 08:53:07;;;;;;;;;;;;;;;;;;5087192;28;19948;-65
2023/05/30 08:56:02;;;;;;;;;;;;;;;;;;5084893;27;19916;-65
2023/05/30 08:58:29;;;;;;;;;;;;;;;;;;5066419;28;19921;-65
2023/05/30 09:00:55;;;;;;;;;;;;;;;;;;5066509;28;19962;-65
2023/05/30 09:03:22;;;;;;;;;;;;;;;;;;5061186;28;20355;-65
2023/05/30 09:05:48;;;;;;;;;;;;;;;;;;5065521;28;19913;-65
2023/05/30 09:09:18;;;;;;;;;;;;;;;;;;5087285;27;20307;-64
2023/05/30 09:11:43;;;;;;;;;;;;;;;;;;5088255;28;20394;-64
2023/05/30 09:16:18;;;;;;;;;;;;;;;;;;5099024;27;2109661;-64
2023/05/30 09:18:44;;;;;;;;;;;;;;;;;;5170623;27;20458;-64
2023/05/30 09:21:11;;;;;;;;;;;;;;;;;;5167733;27;19918;-64
2023/05/30 09:25:45;;;;;;;;;;;;;;;;;;4972882;28;19922;-66
2023/05/30 09:28:12;;;;;;;;;;;;;;;;;;4958788;28;19961;-64
2023/05/30 09:30:38;;;;;;;;;;;;;;;;;;4962327;28;20382;-65
2023/05/30 09:33:04;;;;;;;;;;;;;;;;;;4957702;28;19980;-65
2023/05/30 09:35:30;;;;;;;;;;;;;;;;;;4959576;28;19918;-65
2023/05/30 09:43:19;;;;;;;;;;;;;;;;;;5086583;27;19923;-64
2023/05/30 09:45:45;;;;;;;;;;;;;;;;;;5087104;28;19947;-64
2023/05/30 09:48:11;;;;;;;;;;;;;;;;;;5087080;28;19959;-65
2023/05/30 09:50:37;;;;;;;;;;;;;;;;;;5087864;28;19916;-65
2023/05/30 09:53:03;;;;;;;;;;;;;;;;;;5084347;28;19916;-64
2023/05/30 09:55:29;;;;;;;;;;;;;;;;;;5085429;28;20007;-64
2023/05/30 09:59:54;;;;;;;;;;;;;;;;;;5091620;27;19920;-64
2023/05/30 10:02:20;;;;;;;;;;;;;;;;;;5079486;28;20003;-65
2023/05/30 10:04:47;;;;;;;;;;;;;;;;;;5068269;28;20301;-66
2023/05/30 10:07:14;;;;;;;;;;;;;;;;;;5067042;28;20262;-65
2023/05/30 10:09:40;;;;;;;;;;;;;;;;;;5070147;28;19909;-65
2023/05/30 10:12:06;;;;;;;;;;;;;;;;;;5068734;28;20004;-65
2023/05/30 10:16:15;;;;;;;;;;;;;;;;;;5088810;28;19923;-65
2023/05/30 10:18:41;;;;;;;;;;;;;;;;;;5089912;28;19920;-64
2023/05/30 10:21:07;;;;;;;;;;;;;;;;;;5088828;28;19908;-64
2023/05/30 10:23:33;;;;;;;;;;;;;;;;;;5090562;28;19909;-65
2023/05/30 10:27:45;;;;;;;;;;;;;;;;;;5088223;27;19920;-66
2023/05/30 10:30:11;;;;;;;;;;;;;;;;;;5088055;28;19965;-66
2023/05/30 10:32:37;;;;;;;;;;;;;;;;;;5079796;28;19913;-65
2023/05/30 10:35:05;;;;;;;;;;;;;;;;;;5087893;28;19912;-65
2023/05/30 10:37:30;;;;;;;;;;;;;;;;;;5087946;28;19956;-65
2023/05/30 10:39:58;;;;;;;;;;;;;;;;;;5089091;28;20383;-65
2023/05/30 10:42:24;;;;;;;;;;;;;;;;;;5088999;28;20384;-66
2023/05/30 10:44:54;;;;;;;;;;;;;;;;;;5087667;28;19937;-65
2023/05/30 10:47:20;;;;;;;;;;;;;;;;;;5085771;28;19916;-65
2023/05/30 10:49:46;;;;;;;;;;;;;;;;;;5093246;28;19993;-65
2023/05/30 10:52:14;;;;;;;;;;;;;;;;;;5087273;28;20352;-65
2023/05/30 10:54:41;;;;;;;;;;;;;;;;;;5087445;28;19912;-65
2023/05/30 10:57:07;;;;;;;;;;;;;;;;;;5088423;28;19916;-65
2023/05/30 10:59:33;;;;;;;;;;;;;;;;;;5088500;28;19908;-65
2023/05/30 11:02:02;;;;;;;;;;;;;;;;;;5087157;28;20379;-65
2023/05/30 11:04:28;;;;;;;;;;;;;;;;;;5086774;28;20376;-65
2023/05/30 11:06:54;;;;;;;;;;;;;;;;;;5088315;28;19920;-66
2023/05/30 11:09:20;;;;;;;;;;;;;;;;;;5086236;28;19935;-66
2023/05/30 11:11:46;;;;;;;;;;;;;;;;;;5084952;28;19912;-66
2023/05/30 11:14:12;;;;;;;;;;;;;;;;;;5085499;28;19974;-66
2023/05/30 11:16:38;;;;;;;;;;;;;;;;;;5086495;28;20276;-67
2023/05/30 11:19:04;;;;;;;;;;;;;;;;;;5086544;28;19916;-66
2023/05/30 11:21:30;;;;;;;;;;;;;;;;;;5084267;28;19958;-66
2023/05/30 11:23:56;;;;;;;;;;;;;;;;;;5101972;28;19908;-64
2023/05/30 11:26:22;;;;;;;;;;;;;;;;;;5104999;28;19924;-65
2023/05/30 11:28:50;;;;;;;;;;;;;;;;;;5107737;28;19927;-63
2023/05/30 11:31:16;;;;;;;;;;;;;;;;;;5106083;28;19994;-64
2023/05/30 11:33:42;;;;;;;;;;;;;;;;;;5107526;28;19909;-64
2023/05/30 11:36:08;;;;;;;;;;;;;;;;;;5107674;28;19995;-65
2023/05/30 11:38:34;;;;;;;;;;;;;;;;;;5095192;28;20474;-65
2023/05/30 11:41:00;;;;;;;;;;;;;;;;;;5094135;28;19919;-65
2023/05/30 11:43:26;;;;;;;;;;;;;;;;;;5094133;28;19909;-65
2023/05/30 11:45:53;;;;;;;;;;;;;;;;;;5089645;28;19916;-67
2023/05/30 11:48:19;;;;;;;;;;;;;;;;;;5077385;28;20356;-67
2023/05/30 11:50:46;;;;;;;;;;;;;;;;;;5076835;28;19912;-67
2023/05/30 11:53:13;;;;;;;;;;;;;;;;;;5094392;28;20360;-67
2023/05/30 11:55:39;;;;;;;;;;;;;;;;;;5095757;28;19920;-66
2023/05/30 11:58:05;;;;;;;;;;;;;;;;;;5095517;28;20261;-67
2023/05/30 12:00:31;;;;;;;;;;;;;;;;;;5094384;28;20023;-66
2023/05/30 12:02:57;;;;;;;;;;;;;;;;;;5095560;28;19916;-65
2023/05/30 12:05:23;;;;;;;;;;;;;;;;;;5094763;28;19912;-65
2023/05/30 12:07:51;;;;;;;;;;;;;;;;;;5094300;28;19919;-66
2023/05/30 12:10:17;;;;;;;;;;;;;;;;;;5093589;28;19908;-65
2023/05/30 12:12:43;;;;;;;;;;;;;;;;;;5093939;28;20281;-65
2023/05/30 12:15:09;;;;;;;;;;;;;;;;;;5075777;28;20347;-65
2023/05/30 12:17:35;;;;;;;;;;;;;;;;;;5093104;28;20275;-64
2023/05/30 12:20:06;;;;;;;;;;;;;;;;;;5083245;28;19985;-64
2023/05/30 12:22:32;;;;;;;;;;;;;;;;;;5092015;28;20578;-65
2023/05/30 12:24:58;;;;;;;;;;;;;;;;;;5092447;28;19999;-64
2023/05/30 12:27:25;;;;;;;;;;;;;;;;;;5086949;28;19931;-65
2023/05/30 12:29:51;;;;;;;;;;;;;;;;;;5094208;28;19915;-65
2023/05/30 12:32:16;;;;;;;;;;;;;;;;;;5094555;28;19908;-65
2023/05/30 12:34:45;;;;;;;;;;;;;;;;;;5092553;28;19938;-64
2023/05/30 12:37:12;;;;;;;;;;;;;;;;;;5073525;28;19918;-65
2023/05/30 12:39:38;;;;;;;;;;;;;;;;;;5094543;28;19916;-64
2023/05/30 12:42:04;;;;;;;;;;;;;;;;;;5094024;28;20425;-64
2023/05/30 12:44:30;;;;;;;;;;;;;;;;;;5094463;28;20356;-64
2023/05/30 12:46:56;;;;;;;;;;;;;;;;;;5094747;28;19916;-65
2023/05/30 12:49:22;;;;;;;;;;;;;;;;;;5093585;28;19961;-65
2023/05/30 12:51:48;;;;;;;;;;;;;;;;;;5090836;28;20058;-65
2023/05/30 12:54:14;;;;;;;;;;;;;;;;;;5086275;28;19916;-66
2023/05/30 12:56:40;;;;;;;;;;;;;;;;;;5070876;28;19965;-66
2023/05/30 12:59:06;;;;;;;;;;;;;;;;;;5090431;28;19916;-64
2023/05/30 13:01:32;;;;;;;;;;;;;;;;;;5090191;28;19915;-67
2023/05/30 13:03:58;;;;;;;;;;;;;;;;;;5090924;28;20406;-66
2023/05/30 13:06:24;;;;;;;;;;;;;;;;;;5090874;28;20347;-66
2023/05/30 13:08:50;;;;;;;;;;;;;;;;;;5092880;28;19951;-66
2023/05/30 13:11:16;;;;;;;;;;;;;;;;;;5092405;28;19915;-66
2023/05/30 13:13:42;;;;;;;;;;;;;;;;;;5092382;28;19912;-65
2023/05/30 13:16:08;;;;;;;;;;;;;;;;;;5089948;28;19912;-65
2023/05/30 13:18:34;;;;;;;;;;;;;;;;;;5091022;28;19920;-66
2023/05/30 13:21:00;;;;;;;;;;;;;;;;;;5088927;28;19920;-66
2023/05/30 13:23:26;;;;;;;;;;;;;;;;;;5091010;28;20542;-67
2023/05/30 13:25:52;;;;;;;;;;;;;;;;;;5092115;28;19928;-66
2023/05/30 13:28:18;;;;;;;;;;;;;;;;;;5091121;28;19920;-66
2023/05/30 13:30:44;;;;;;;;;;;;;;;;;;5088736;28;19916;-70
2023/05/30 13:33:10;;;;;;;;;;;;;;;;;;5091136;28;19985;-69
2023/05/30 13:35:36;;;;;;;;;;;;;;;;;;5091484;28;19908;-69
2023/05/30 13:38:02;;;;;;;;;;;;;;;;;;5092428;28;20015;-69
2023/05/30 13:40:28;;;;;;;;;;;;;;;;;;5091885;28;19912;-69
2023/05/30 13:42:54;;;;;;;;;;;;;;;;;;5091601;28;20320;-69
2023/05/30 13:45:20;;;;;;;;;;;;;;;;;;5090442;28;19908;-69
2023/05/30 13:47:47;;;;;;;;;;;;;;;;;;5087862;28;19935;-69
2023/05/30 13:50:13;;;;;;;;;;;;;;;;;;5084148;28;19912;-69
2023/05/30 13:52:39;;;;;;;;;;;;;;;;;;5071193;28;20352;-69
2023/05/30 13:57:00;;;;;;;;;;;;;;;;;;5149857;27;19918;-68
2023/05/30 13:59:26;;;;;;;;;;;;;;;;;;5150300;27;19915;-68
2023/05/30 14:01:52;;;;;;;;;;;;;;;;;;5150921;27;19933;-68
2023/05/30 14:04:18;;;;;;;;;;;;;;;;;;5150627;27;19960;-68
2023/05/30 14:08:15;;;;;;;;;;;;;;;;;;5087478;27;19923;-68
2023/05/30 14:10:41;;;;;;;;;;;;;;;;;;5088312;28;19912;-68
2023/05/30 14:13:07;;;;;;;;;;;;;;;;;;5087951;28;20383;-68
2023/05/30 14:15:33;;;;;;;;;;;;;;;;;;5088712;28;20322;-68
2023/05/30 14:17:59;;;;;;;;;;;;;;;;;;5087938;28;20257;-68
2023/05/30 14:20:24;;;;;;;;;;;;;;;;;;5089157;28;19912;-70
2023/05/30 14:22:51;;;;;;;;;;;;;;;;;;5090343;28;19915;-69
2023/05/30 14:25:17;;;;;;;;;;;;;;;;;;5090131;28;20250;-68
2023/05/30 14:27:43;;;;;;;;;;;;;;;;;;5088614;28;20062;-68
2023/05/30 14:31:50;;;;;;;;;;;;;;;;;;5151051;27;20355;-68
2023/05/30 14:34:16;;;;;;;;;;;;;;;;;;5150968;27;20006;-68
2023/05/30 14:37:12;;;;;;;;;;;;;;;;;;5090141;27;20384;-69
2023/05/30 14:39:38;;;;;;;;;;;;;;;;;;5090919;28;19999;-69
2023/05/30 14:45:10;;;;;;;;;;;;;;;;;;5174175;27;19917;-68
2023/05/30 14:48:15;;;;;;;;;;;;;;;;;;5152987;27;20439;-69
2023/05/30 14:50:59;;;;;;;;;;;;;;;;;;5090322;27;19920;-68
2023/05/30 14:53:25;;;;;;;;;;;;;;;;;;5089298;28;19913;-68
2023/05/30 14:57:27;;;;;;;;;;;;;;;;;;5112248;27;19916;-68
2023/05/30 15:02:24;;;;;;;;;;;;;;;;;;5091487;27;19917;-68
2023/05/30 15:05:21;;;;;;;;;;;;;;;;;;5092194;27;19917;-68
2023/05/30 15:07:48;;;;;;;;;;;;;;;;;;5091115;28;19912;-68
2023/05/30 15:10:14;;;;;;;;;;;;;;;;;;5091210;28;19960;-69
2023/05/30 15:12:41;;;;;;;;;;;;;;;;;;5091343;28;19916;-68
2023/05/30 15:16:00;;;;;;;;;;;;;;;;;;5152775;27;20355;-69
2023/05/30 15:18:26;;;;;;;;;;;;;;;;;;5152816;27;19976;-69
2023/05/30 15:20:52;;;;;;;;;;;;;;;;;;5152781;27;19992;-69
2023/05/30 15:23:18;;;;;;;;;;;;;;;;;;5152343;27;19907;-68
2023/05/30 15:27:36;;;;;;;;;;;;;;;;;;5089629;27;20299;-68
2023/05/30 15:30:02;;;;;;;;;;;;;;;;;;5063850;28;20438;-68
2023/05/30 15:32:28;;;;;;;;;;;;;;;;;;5059869;28;19916;-68
2023/05/30 15:36:45;;;;;;;;;;;;;;;;;;5091198;28;19919;-68
2023/05/30 15:39:11;;;;;;;;;;;;;;;;;;5089139;28;19995;-68
2023/05/30 15:41:37;;;;;;;;;;;;;;;;;;5089706;28;19909;-68
2023/05/30 15:44:03;;;;;;;;;;;;;;;;;;5089646;28;19919;-68
2023/05/30 15:48:15;;;;;;;;;;;;;;;;;;5089689;27;19916;-68
2023/05/30 15:51:40;;;;;;;;;;;;;;;;;;5150343;27;19934;-68
2023/05/30 15:54:06;;;;;;;;;;;;;;;;;;5150824;27;20392;-67
2023/05/30 15:56:32;;;;;;;;;;;;;;;;;;5150760;27;20493;-69
2023/05/30 16:00:11;;;;;;;;;;;;;;;;;;5088850;27;20403;-69
2023/05/30 16:02:37;;;;;;;;;;;;;;;;;;5089545;28;19912;-69
2023/05/30 16:06:13;;;;;;;;;;;;;;;;;;5111485;27;20371;-68
2023/05/30 16:11:00;;;;;;;;;;;;;;;;;;5091417;27;19916;-70
2023/05/30 16:16:19;;;;;;;;;;;;;;;;;;5091702;28;19912;-68
2023/05/30 16:23:49;;;;;;;;;;;;;;;;;;5092254;27;19916;-68
2023/05/30 16:26:15;;;;;;;;;;;;;;;;;;5090941;28;19991;-68
2023/05/30 16:28:41;;;;;;;;;;;;;;;;;;5091297;28;19947;-68
2023/05/30 16:31:07;;;;;;;;;;;;;;;;;;5091279;28;19908;-68
2023/05/30 16:35:19;;;;;;;;;;;;;;;;;;5152581;27;19916;-67
2023/05/30 16:37:45;;;;;;;;;;;;;;;;;;5152815;27;20413;-68
2023/05/30 16:41:39;;;;;;;;;;;;;;;;;;5091253;27;19918;-68
2023/05/30 16:44:05;;;;;;;;;;;;;;;;;;5090009;28;19912;-68
2023/05/30 16:46:31;;;;;;;;;;;;;;;;;;5091280;28;19909;-68
2023/05/30 16:48:57;;;;;;;;;;;;;;;;;;5090770;28;19908;-67
2023/05/30 16:51:23;;;;;;;;;;;;;;;;;;5091072;28;19995;-68
2023/05/30 16:53:49;;;;;;;;;;;;;;;;;;5091361;28;19958;-69
2023/05/30 16:59:18;;;;;;;;;;;;;;;;;;5091528;27;19922;-68
2023/05/30 17:03:33;;;;;;;;;;;;;;;;;;5090913;27;19923;-69
2023/05/30 17:06:35;;;;;;;;;;;;;;;;;;5153444;27;19922;-69
2023/05/30 17:09:01;;;;;;;;;;;;;;;;;;5152772;27;19912;-70
2023/05/30 17:13:52;;;;;;;;;;;;;;;;;;5091466;27;19917;-69
2023/05/30 17:16:18;;;;;;;;;;;;;;;;;;5091216;28;20335;-69
2023/05/30 17:18:45;;;;;;;;;;;;;;;;;;5091296;28;19908;-69
2023/05/30 17:21:11;;;;;;;;;;;;;;;;;;5091276;28;19954;-69
2023/05/30 17:24:00;;;;;;;;;;;;;;;;;;5111556;27;20006;-69
2023/05/30 17:26:39;;;;;;;;;;;;;;;;;;5153382;27;19911;-68
2023/05/30 17:29:05;;;;;;;;;;;;;;;;;;5134294;27;19912;-68
2023/05/30 17:31:32;;;;;;;;;;;;;;;;;;5152248;27;20268;-68
2023/05/30 17:35:25;;;;;;;;;;;;;;;;;;5091422;27;19939;-68
2023/05/30 17:39:30;;;;;;;;;;;;;;;;;;5091722;27;19916;-68
2023/05/30 17:41:56;;;;;;;;;;;;;;;;;;5091624;28;19999;-68
2023/05/30 17:45:11;;;;;;;;;;;;;;;;;;5091244;27;19916;-68
2023/05/30 17:47:37;;;;;;;;;;;;;;;;;;5091942;28;19920;-69
2023/05/30 17:53:50;;;;;;;;;;;;;;;;;;5092310;27;20360;-68
2023/05/30 17:56:16;;;;;;;;;;;;;;;;;;5091400;28;19999;-68
2023/05/30 17:58:42;;;;;;;;;;;;;;;;;;5091151;28;20356;-68
2023/05/30 18:01:08;;;;;;;;;;;;;;;;;;5091264;28;20272;-69
2023/05/30 18:03:34;;;;;;;;;;;;;;;;;;5091208;28;20352;-69
2023/05/30 18:10:09;;;;;;;;;;;;;;;;;;5091359;27;19913;-69
2023/05/30 18:17:11;;;;;;;;;;;;;;;;;;5173889;27;20013;-67
2023/05/30 18:19:53;;;;;;;;;;;;;;;;;;5091295;27;19923;-68
2023/05/30 18:22:19;;;;;;;;;;;;;;;;;;5091370;28;20006;-68
2023/05/30 18:24:45;;;;;;;;;;;;;;;;;;5091278;28;19908;-69
2023/05/30 18:28:09;;;;;;;;;;;;;;;;;;5152610;27;20001;-69
2023/05/30 18:30:35;;;;;;;;;;;;;;;;;;5152854;27;19917;-68
2023/05/30 18:34:51;;;;;;;;;;;;;;;;;;5090897;27;20303;-69
2023/05/30 18:37:17;;;;;;;;;;;;;;;;;;5091369;28;19947;-72
2023/05/30 18:39:43;;;;;;;;;;;;;;;;;;5091233;28;20386;-69
2023/05/30 18:42:09;;;;;;;;;;;;;;;;;;5090964;28;20288;-69
2023/05/30 18:48:15;;;;;;;;;;;;;;;;;;5111656;27;19922;-68
2023/05/30 19:00:34;;;;;;;;;;;;;;;;;;5091625;27;19927;-69
2023/05/30 19:03:00;;;;;;;;;;;;;;;;;;5089604;28;19913;-69
2023/05/30 19:07:05;;;;;;;;;;;;;;;;;;5173741;27;20002;-68
2023/05/30 19:09:31;;;;;;;;;;;;;;;;;;5173408;27;20417;-67
2023/05/30 19:11:58;;;;;;;;;;;;;;;;;;5173767;27;20006;-67
2023/05/30 19:14:24;;;;;;;;;;;;;;;;;;5173916;27;19906;-68
2023/05/30 19:21:59;;;;;;;;;;;;;;;;;;5091509;27;20279;-68
2023/05/30 19:25:24;;;;;;;;;;;;;;;;;;5091404;27;19919;-67
2023/05/30 19:27:52;;;;;;;;;;;;;;;;;;5091425;28;19920;-68
2023/05/30 19:30:18;;;;;;;;;;;;;;;;;;5090260;28;19908;-68
2023/05/30 19:36:59;;;;;;;;;;;;;;;;;;5152900;27;20392;-69
2023/05/30 19:39:25;;;;;;;;;;;;;;;;;;5152555;27;20379;-69
2023/05/30 19:41:51;;;;;;;;;;;;;;;;;;5134313;27;19915;-68
2023/05/30 19:44:17;;;;;;;;;;;;;;;;;;5152437;27;19908;-69
2023/05/30 19:46:43;;;;;;;;;;;;;;;;;;5153075;27;20435;-69
2023/05/30 19:49:49;;;;;;;;;;;;;;;;;;5091859;27;19923;-69
2023/05/30 19:52:15;;;;;;;;;;;;;;;;;;5091037;28;19999;-69
2023/05/30 19:59:25;;;;;;;;;;;;;;;;;;5091107;27;19923;-69
2023/05/30 20:05:42;;;;;;;;;;;;;;;;;;5152622;27;19921;-69
2023/05/30 20:08:55;;;;;;;;;;;;;;;;;;5152923;27;19915;-69
2023/05/30 20:11:21;;;;;;;;;;;;;;;;;;5134060;27;19934;-69
2023/05/30 20:17:46;;;;;;;;;;;;;;;;;;5091527;27;19917;-68
2023/05/30 20:20:12;;;;;;;;;;;;;;;;;;5089770;28;19936;-71
2023/05/30 20:23:41;;;;;;;;;;;;;;;;;;5132402;27;20284;-69
2023/05/30 20:31:17;;;;;;;;;;;;;;;;;;5092075;27;19916;-69
2023/05/30 20:33:43;;;;;;;;;;;;;;;;;;5091026;28;19919;-68
2023/05/30 20:36:09;;;;;;;;;;;;;;;;;;5089992;28;20360;-69